createdAt,value
2023-03-15T00:02:40.143Z,1.80
2023-03-15T00:05:51.900Z,1.87
2023-03-15T00:09:01.078Z,2.10
2023-03-15T00:12:11.967Z,1.80
2023-03-15T00:15:21.497Z,1.83
2023-03-15T00:18:29.965Z,1.93
2023-03-15T00:21:43.044Z,1.80
2023-03-15T00:24:53.473Z,1.90
2023-03-15T00:28:04.445Z,1.80
2023-03-15T00:31:17.777Z,2.13
2023-03-15T00:34:28.245Z,1.80
2023-03-15T00:37:40.759Z,1.77
2023-03-15T00:40:47.299Z,2.07
2023-03-15T00:43:55.981Z,2.03
2023-03-15T00:47:14.034Z,2.47
2023-03-15T00:50:23.629Z,1.83
2023-03-15T00:53:34.393Z,1.70
2023-03-15T00:56:45.957Z,1.73
2023-03-15T00:59:56.399Z,1.90
2023-03-15T01:03:36.976Z,1.80
2023-03-15T01:06:51.834Z,1.67
2023-03-15T01:10:17.404Z,1.47
2023-03-15T01:13:23.638Z,2.30
2023-03-15T01:16:33.353Z,1.53
2023-03-15T01:19:42.462Z,1.00
2023-03-15T01:22:49.919Z,1.43
2023-03-15T01:25:57.995Z,1.30
2023-03-15T01:29:05.130Z,1.10
2023-03-15T01:32:12.482Z,1.10
2023-03-15T01:35:20.198Z,1.23
2023-03-15T01:42:10.132Z,1.07
2023-03-15T01:45:55.173Z,1.40
2023-03-15T01:49:14.789Z,1.17
2023-03-15T01:52:25.452Z,1.10
2023-03-15T01:55:34.025Z,1.10
2023-03-15T01:58:42.754Z,1.10
2023-03-15T02:01:51.901Z,1.20
2023-03-15T02:05:05.774Z,0.83
2023-03-15T02:08:13.296Z,1.10
2023-03-15T02:11:24.928Z,1.20
2023-03-15T02:18:28.185Z,0.77
2023-03-15T02:21:54.976Z,0.60
2023-03-15T02:28:35.995Z,0.67
2023-03-15T02:31:54.334Z,0.80
2023-03-15T02:35:10.893Z,1.30
2023-03-15T02:38:19.576Z,0.70
2023-03-15T02:41:32.186Z,1.00
2023-03-15T02:44:49.836Z,0.73
2023-03-15T02:48:03.090Z,0.60
2023-03-15T02:51:11.750Z,0.50
2023-03-15T02:54:18.776Z,0.50
2023-03-15T02:57:29.097Z,0.90
2023-03-15T03:00:39.103Z,1.10
2023-03-15T03:03:50.393Z,0.90
2023-03-15T03:07:03.022Z,0.50
2023-03-15T03:10:12.097Z,0.60
2023-03-15T03:13:21.938Z,0.93
2023-03-15T03:16:35.629Z,0.70
2023-03-15T03:19:49.792Z,0.53
2023-03-15T03:23:12.629Z,0.70
2023-03-15T03:30:01.671Z,1.20
2023-03-15T03:33:09.718Z,0.70
2023-03-15T03:36:17.960Z,0.50
2023-03-15T03:39:34.660Z,0.80
2023-03-15T03:42:50.976Z,0.80
2023-03-15T03:45:57.962Z,0.80
2023-03-15T03:49:07.520Z,1.00
2023-03-15T03:52:16.868Z,0.90
2023-03-15T03:55:27.534Z,1.07
2023-03-15T03:58:34.253Z,1.27
2023-03-15T04:01:40.812Z,0.77
2023-03-15T04:04:53.111Z,1.13
2023-03-15T04:08:02.889Z,1.40
2023-03-15T04:11:09.466Z,1.03
2023-03-15T04:14:16.412Z,1.10
2023-03-15T04:17:25.790Z,0.83
2023-03-15T04:20:37.370Z,1.47
2023-03-15T04:23:43.544Z,1.37
2023-03-15T04:26:49.286Z,1.10
2023-03-15T04:29:55.584Z,1.20
2023-03-15T04:33:05.794Z,1.23
2023-03-15T04:36:19.068Z,1.20
2023-03-15T04:39:26.243Z,1.23
2023-03-15T04:42:33.425Z,0.73
2023-03-15T04:45:40.095Z,1.00
2023-03-15T04:48:48.124Z,1.40
2023-03-15T04:51:55.947Z,1.30
2023-03-15T04:55:02.468Z,1.33
2023-03-15T04:58:08.007Z,1.20
2023-03-15T05:01:14.524Z,1.80
2023-03-15T05:04:21.595Z,1.53
2023-03-15T05:07:30.151Z,1.83
2023-03-15T05:10:36.160Z,1.50
2023-03-15T05:13:42.400Z,1.60
2023-03-15T05:16:49.680Z,1.10
2023-03-15T05:19:57.473Z,1.57
2023-03-15T05:23:05.383Z,1.40
2023-03-15T05:26:11.353Z,2.00
2023-03-15T05:29:18.039Z,1.57
2023-03-15T05:32:29.032Z,1.63
2023-03-15T05:35:35.557Z,1.37
2023-03-15T05:38:43.974Z,1.37
2023-03-15T05:41:48.060Z,1.33
2023-03-15T05:44:50.981Z,1.43
2023-03-15T05:47:54.053Z,0.90
2023-03-15T05:50:56.796Z,1.40
2023-03-15T05:54:01.054Z,1.20
2023-03-15T05:57:04.327Z,1.50
2023-03-15T06:00:10.186Z,1.43
2023-03-15T06:03:13.106Z,1.27
2023-03-15T06:06:16.379Z,1.20
2023-03-15T06:09:20.805Z,1.40
2023-03-15T06:12:23.561Z,1.20
2023-03-15T06:15:26.366Z,1.30
2023-03-15T06:18:29.264Z,0.90
2023-03-15T06:21:32.179Z,1.17
2023-03-15T06:24:36.687Z,1.20
2023-03-15T06:27:39.884Z,1.80
2023-03-15T06:30:42.838Z,1.40
2023-03-15T06:33:45.562Z,1.50
2023-03-15T06:36:49.477Z,1.40
2023-03-15T06:39:54.523Z,1.43
2023-03-15T06:42:57.486Z,1.03
2023-03-15T06:46:00.918Z,1.50
2023-03-15T06:49:04.305Z,0.80
2023-03-15T06:52:08.500Z,1.30
2023-03-15T06:55:17.183Z,1.27
2023-03-15T06:58:20.067Z,1.37
2023-03-15T07:01:22.932Z,0.97
2023-03-15T07:04:25.950Z,1.27
2023-03-15T07:07:28.727Z,1.10
2023-03-15T07:10:32.986Z,1.10
2023-03-15T07:13:35.931Z,1.05
2023-03-15T07:16:38.806Z,0.98
2023-03-15T07:19:55.561Z,0.88
2023-03-15T07:22:59.446Z,0.70
2023-03-15T07:26:04.002Z,1.10
2023-03-15T07:29:06.950Z,1.42
2023-03-15T07:32:09.823Z,1.13
2023-03-15T07:35:13.543Z,1.40
2023-03-15T07:38:16.540Z,1.27
2023-03-15T07:41:20.749Z,0.90
2023-03-15T07:44:23.751Z,1.20
2023-03-15T07:47:26.745Z,1.73
2023-03-15T07:50:29.713Z,1.43
2023-03-15T07:53:32.474Z,1.00
2023-03-15T07:56:37.517Z,1.30
2023-03-15T07:59:40.444Z,1.23
2023-03-15T08:02:44.390Z,1.03
2023-03-15T08:05:47.344Z,1.20
2023-03-15T08:08:50.099Z,1.30
2023-03-15T08:11:54.744Z,1.10
2023-03-15T08:14:57.573Z,1.10
2023-03-15T08:18:00.704Z,1.10
2023-03-15T08:21:04.280Z,1.10
2023-03-15T08:24:07.640Z,0.90
2023-03-15T08:27:11.983Z,0.93
2023-03-15T08:30:16.454Z,1.57
2023-03-15T08:33:19.176Z,1.27
2023-03-15T08:36:22.013Z,0.63
2023-03-15T08:39:25.005Z,0.77
2023-03-15T08:42:29.405Z,0.60
2023-03-15T08:45:46.664Z,0.80
2023-03-15T08:48:56.128Z,1.40
2023-03-15T08:51:59.220Z,1.13
2023-03-15T08:55:02.155Z,0.90
2023-03-15T08:58:06.355Z,1.70
2023-03-15T09:01:09.260Z,1.10
2023-03-15T09:04:12.200Z,0.90
2023-03-15T09:07:15.450Z,0.93
2023-03-15T09:10:19.018Z,0.97
2023-03-15T09:13:23.511Z,0.70
2023-03-15T09:16:26.597Z,0.70
2023-03-15T09:22:39.612Z,0.90
2023-03-15T09:25:43.156Z,0.70
2023-03-15T09:28:47.542Z,0.63
2023-03-15T09:31:50.593Z,0.87
2023-03-15T09:34:53.564Z,0.67
2023-03-15T09:37:56.862Z,1.40
2023-03-15T09:41:00.804Z,0.60
2023-03-15T09:44:16.153Z,0.97
2023-03-15T09:47:34.791Z,0.80
2023-03-15T09:50:45.689Z,1.03
2023-03-15T09:53:55.267Z,0.70
2023-03-15T09:57:02.579Z,0.80
2023-03-15T10:00:12.657Z,0.80
2023-03-15T10:03:22.481Z,0.60
2023-03-15T10:06:30.266Z,0.80
2023-03-15T10:09:34.581Z,0.77
2023-03-15T10:12:42.048Z,0.97
2023-03-15T10:16:02.244Z,0.90
2023-03-15T10:19:14.851Z,0.87
2023-03-15T10:22:25.772Z,0.60
2023-03-15T10:25:30.101Z,0.77
2023-03-15T10:28:34.901Z,0.63
2023-03-15T10:31:45.001Z,1.00
2023-03-15T10:34:52.129Z,0.60
2023-03-15T10:37:55.441Z,0.63
2023-03-15T10:41:00.602Z,0.57
2023-03-15T10:44:06.665Z,0.40
2023-03-15T10:47:23.588Z,0.80
2023-03-15T10:50:29.040Z,0.60
2023-03-15T10:53:31.999Z,0.70
2023-03-15T10:56:43.206Z,0.53
2023-03-15T10:59:56.498Z,0.57
2023-03-15T11:03:06.701Z,0.50
2023-03-15T11:06:21.506Z,0.60
2023-03-15T11:09:26.601Z,1.20
2023-03-15T11:12:31.008Z,0.70
2023-03-15T11:15:34.197Z,0.70
2023-03-15T11:18:46.875Z,0.60
2023-03-15T11:21:52.050Z,1.00
2023-03-15T11:24:55.796Z,0.60
2023-03-15T11:27:58.855Z,0.40
2023-03-15T11:31:04.656Z,0.40
2023-03-15T11:34:13.599Z,0.40
2023-03-15T11:37:20.872Z,0.30
2023-03-15T11:40:32.601Z,0.40
2023-03-15T11:43:48.460Z,0.60
2023-03-15T11:46:57.423Z,0.43
2023-03-15T11:50:02.013Z,0.50
2023-03-15T11:53:07.179Z,0.37
2023-03-15T11:56:26.238Z,0.60
2023-03-15T11:59:32.665Z,0.40
2023-03-15T12:02:49.168Z,0.50
2023-03-15T12:05:59.800Z,0.80
2023-03-15T12:09:03.068Z,0.87
2023-03-15T12:12:07.771Z,0.60
2023-03-15T12:15:50.004Z,0.50
2023-03-15T12:18:54.568Z,0.50
2023-03-15T12:21:59.819Z,0.60
2023-03-15T12:25:12.861Z,0.73
2023-03-15T12:28:22.974Z,0.40
2023-03-15T12:31:26.351Z,0.40
2023-03-15T12:34:43.403Z,0.60
2023-03-15T12:37:49.611Z,0.73
2023-03-15T12:40:55.268Z,0.87
2023-03-15T12:44:19.722Z,0.60
2023-03-15T12:47:22.566Z,0.50
2023-03-15T12:50:39.302Z,1.03
2023-03-15T12:53:49.192Z,1.07
2023-03-15T12:56:55.502Z,1.00
2023-03-15T13:00:02.028Z,1.10
2023-03-15T13:03:07.677Z,0.80
2023-03-15T13:06:20.229Z,0.80
2023-03-15T13:09:42.161Z,0.90
2023-03-15T13:12:49.211Z,0.70
2023-03-15T13:16:05.636Z,0.97
2023-03-15T13:19:18.717Z,0.73
2023-03-15T13:22:30.282Z,0.73
2023-03-15T13:25:39.938Z,1.00
2023-03-15T13:28:49.482Z,0.90
2023-03-15T13:32:03.008Z,0.70
2023-03-15T13:35:13.060Z,0.80
2023-03-15T13:38:27.130Z,0.60
2023-03-15T13:41:32.449Z,0.77
2023-03-15T13:44:35.384Z,0.83
2023-03-15T13:47:38.256Z,0.80
2023-03-15T13:50:40.937Z,0.63
2023-03-15T13:53:50.016Z,1.10
2023-03-15T13:57:04.997Z,0.90
2023-03-15T14:00:12.016Z,1.00
2023-03-15T14:03:22.281Z,0.83
2023-03-15T14:06:27.209Z,1.13
2023-03-15T14:09:29.856Z,0.90
2023-03-15T14:12:34.120Z,1.40
2023-03-15T14:15:39.209Z,0.60
2023-03-15T14:18:42.699Z,1.00
2023-03-15T14:21:48.815Z,0.70
2023-03-15T14:24:53.563Z,0.70
2023-03-15T14:28:01.227Z,0.67
2023-03-15T14:31:04.399Z,0.80
2023-03-15T14:34:09.930Z,0.60
2023-03-15T14:37:31.053Z,0.60
2023-03-15T14:40:35.974Z,0.90
2023-03-15T14:43:39.987Z,0.63
2023-03-15T14:46:42.744Z,0.80
2023-03-15T14:49:45.472Z,0.67
2023-03-15T14:52:49.087Z,0.53
2023-03-15T14:55:51.906Z,0.67
2023-03-15T14:58:55.922Z,0.70
2023-03-15T15:02:00.935Z,0.70
2023-03-15T15:05:04.339Z,0.60
2023-03-15T15:08:12.776Z,0.53
2023-03-15T15:11:15.875Z,1.57
2023-03-15T15:14:20.354Z,0.90
2023-03-15T15:17:23.445Z,0.90
2023-03-15T15:20:26.398Z,0.60
2023-03-15T15:23:31.086Z,0.60
2023-03-15T15:26:34.440Z,0.60
2023-03-15T15:29:38.449Z,1.13
2023-03-15T15:32:41.179Z,1.00
2023-03-15T15:35:43.912Z,1.10
2023-03-15T15:38:46.652Z,0.80
2023-03-15T15:41:49.897Z,0.90
2023-03-15T15:44:53.854Z,1.07
2023-03-15T15:47:56.911Z,1.10
2023-03-15T15:50:59.561Z,0.80
2023-03-15T15:54:03.458Z,1.07
2023-03-15T15:57:07.843Z,0.90
2023-03-15T16:00:17.943Z,1.13
2023-03-15T16:03:20.622Z,3.73
2023-03-15T16:06:23.585Z,1.07
2023-03-15T16:09:29.977Z,1.40
2023-03-15T16:12:32.741Z,1.03
2023-03-15T16:15:36.793Z,1.30
2023-03-15T16:18:39.401Z,1.67
2023-03-15T16:21:44.943Z,1.37
2023-03-15T16:24:50.975Z,1.70
2023-03-15T16:27:55.657Z,1.40
2023-03-15T16:30:59.739Z,1.80
2023-03-15T16:34:02.469Z,1.40
2023-03-15T16:37:05.667Z,1.33
2023-03-15T16:40:16.243Z,1.10
2023-03-15T16:43:19.675Z,1.10
2023-03-15T16:46:23.690Z,1.50
2023-03-15T16:49:26.307Z,1.33
2023-03-15T16:52:29.030Z,1.27
2023-03-15T16:55:33.763Z,1.20
2023-03-15T16:58:36.522Z,1.37
2023-03-15T17:01:40.651Z,1.20
2023-03-15T17:04:43.331Z,1.20
2023-03-15T17:07:47.904Z,1.17
2023-03-15T17:10:50.706Z,1.00
2023-03-15T17:13:53.314Z,1.37
2023-03-15T17:16:57.434Z,0.90
2023-03-15T17:20:00.113Z,1.40
2023-03-15T17:23:04.878Z,1.20
2023-03-15T17:26:10.754Z,0.97
2023-03-15T17:29:15.814Z,1.27
2023-03-15T17:32:19.951Z,1.37
2023-03-15T17:35:25.432Z,1.40
2023-03-15T17:38:32.086Z,2.00
2023-03-15T17:41:36.986Z,2.00
2023-03-15T17:44:39.558Z,2.03
2023-03-15T17:47:43.594Z,1.90
2023-03-15T17:50:46.244Z,1.40
2023-03-15T17:53:49.223Z,1.60
2023-03-15T17:56:52.241Z,1.70
2023-03-15T17:59:54.850Z,1.93
2023-03-15T18:03:00.133Z,1.73
2023-03-15T18:06:05.200Z,1.57
2023-03-15T18:09:07.867Z,1.20
2023-03-15T18:12:13.187Z,1.30
2023-03-15T18:15:19.102Z,1.10
2023-03-15T18:18:23.094Z,1.27
2023-03-15T18:21:28.412Z,1.27
2023-03-15T18:24:31.672Z,1.27
2023-03-15T18:27:34.332Z,1.20
2023-03-15T18:30:38.021Z,1.27
2023-03-15T18:33:42.320Z,1.33
2023-03-15T18:36:45.128Z,1.60
2023-03-15T18:39:47.814Z,1.37
2023-03-15T18:42:50.623Z,1.50
2023-03-15T18:45:53.504Z,1.30
2023-03-15T18:48:57.576Z,1.60
2023-03-15T18:52:00.190Z,1.50
2023-03-15T18:55:03.102Z,1.70
2023-03-15T18:58:08.832Z,1.67
2023-03-15T19:01:11.685Z,2.10
2023-03-15T19:04:15.706Z,2.17
2023-03-15T19:07:18.449Z,3.20
2023-03-15T19:10:22.527Z,2.57
2023-03-15T19:13:25.242Z,2.53
2023-03-15T19:16:30.493Z,2.67
2023-03-15T19:19:35.072Z,2.63
2023-03-15T19:22:37.652Z,2.80
2023-03-15T19:25:40.418Z,2.73
2023-03-15T19:28:43.547Z,2.67
2023-03-15T19:31:46.175Z,2.37
2023-03-15T19:34:50.131Z,2.07
2023-03-15T19:37:53.502Z,2.27
2023-03-15T19:40:58.546Z,2.77
2023-03-15T19:44:01.158Z,2.93
2023-03-15T19:47:03.845Z,1.93
2023-03-15T19:50:10.579Z,2.10
2023-03-15T19:53:13.195Z,2.33
2023-03-15T19:56:15.947Z,3.27
2023-03-15T19:59:18.584Z,1.83
2023-03-15T20:02:21.261Z,1.93
2023-03-15T20:05:26.127Z,1.70
2023-03-15T20:08:28.765Z,1.90
2023-03-15T20:11:32.146Z,1.50
2023-03-15T20:14:35.248Z,1.70
2023-03-15T20:17:38.337Z,1.93
2023-03-15T20:20:42.278Z,2.50
2023-03-15T20:23:45.413Z,2.73
2023-03-15T20:26:48.276Z,2.40
2023-03-15T20:29:51.821Z,3.20
2023-03-15T20:32:54.831Z,2.87
2023-03-15T20:35:59.046Z,2.70
2023-03-15T20:39:01.883Z,2.80
2023-03-15T20:42:04.692Z,2.60
2023-03-15T20:45:09.675Z,3.37
2023-03-15T20:48:12.659Z,2.90
2023-03-15T20:51:16.674Z,3.00
2023-03-15T20:54:19.342Z,2.90
2023-03-15T20:57:22.027Z,3.07
2023-03-15T21:00:27.139Z,3.30
2023-03-15T21:03:31.225Z,2.80
2023-03-15T21:06:35.240Z,3.73
2023-03-15T21:09:38.099Z,3.10
2023-03-15T21:12:40.759Z,3.47
2023-03-15T21:15:45.791Z,2.40
2023-03-15T21:18:51.876Z,3.00
2023-03-15T21:21:56.944Z,3.03
2023-03-15T21:25:00.383Z,3.33
2023-03-15T21:28:03.904Z,3.17
2023-03-15T21:31:07.356Z,3.30
2023-03-15T21:34:10.021Z,3.23
2023-03-15T21:37:13.961Z,3.83
2023-03-15T21:40:16.638Z,3.53
2023-03-15T21:43:19.823Z,3.00
2023-03-15T21:46:22.697Z,3.40
2023-03-15T21:49:25.419Z,3.50
2023-03-15T21:52:29.504Z,3.23
2023-03-15T21:55:33.445Z,3.57
2023-03-15T21:58:36.450Z,3.50
2023-03-15T22:01:39.030Z,3.43
2023-03-15T22:04:42.668Z,3.83
2023-03-15T22:07:46.950Z,3.60
2023-03-15T22:10:53.362Z,3.17
2023-03-15T22:13:56.001Z,3.73
2023-03-15T22:16:58.664Z,3.77
2023-03-15T22:20:02.356Z,2.67
2023-03-15T22:23:06.613Z,3.33
2023-03-15T22:26:09.246Z,3.63
2023-03-15T22:29:11.990Z,3.30
2023-03-15T22:32:14.593Z,3.63
2023-03-15T22:35:17.998Z,3.43
2023-03-15T22:38:22.765Z,4.00
2023-03-15T22:41:25.369Z,3.70
2023-03-15T22:44:30.404Z,3.40
2023-03-15T22:47:33.198Z,3.67
2023-03-15T22:50:35.845Z,2.70
2023-03-15T22:53:39.879Z,3.40
2023-03-15T22:56:43.000Z,3.47
2023-03-15T22:59:45.749Z,3.03
2023-03-15T23:02:48.454Z,3.67
2023-03-15T23:05:51.129Z,3.13
2023-03-15T23:08:55.112Z,3.27
2023-03-15T23:11:57.760Z,3.13
2023-03-15T23:15:01.611Z,3.20
2023-03-15T23:18:05.721Z,3.13
2023-03-15T23:21:10.736Z,3.70
2023-03-15T23:24:17.148Z,3.60
2023-03-15T23:27:19.810Z,3.40
2023-03-15T23:30:22.998Z,3.80
2023-03-15T23:33:25.688Z,2.90
2023-03-15T23:36:28.371Z,4.10
2023-03-15T23:39:32.351Z,3.20
2023-03-15T23:42:37.459Z,4.07
2023-03-15T23:45:40.130Z,3.60
2023-03-15T23:48:42.834Z,4.00
2023-03-15T23:51:45.442Z,3.30
2023-03-15T23:54:49.608Z,3.20
2023-03-15T23:57:52.282Z,4.07
